sensor_id;sensor_type;location;lat;lon;timestamp;P1;durP1;ratioP1;P2;durP2;ratioP2
22924;SDS011;11628;51.072;3.712;2024-02-26T00:01:00;3.78;;;1.85;;
22924;SDS011;11628;51.072;3.712;2024-02-26T00:03:28;3.58;;;2.00;;
22924;SDS011;11628;51.072;3.712;2024-02-26T00:05:54;3.63;;;2.00;;
22924;SDS011;11628;51.072;3.712;2024-02-26T00:08:21;3.00;;;1.80;;
22924;SDS011;11628;51.072;3.712;2024-02-26T00:10:46;2.70;;;1.80;;
22924;SDS011;11628;51.072;3.712;2024-02-26T00:13:14;4.13;;;2.00;;
22924;SDS011;11628;51.072;3.712;2024-02-26T00:15:40;3.58;;;1.85;;
22924;SDS011;11628;51.072;3.712;2024-02-26T00:18:06;3.67;;;2.30;;
22924;SDS011;11628;51.072;3.712;2024-02-26T00:20:34;3.83;;;2.10;;
22924;SDS011;11628;51.072;3.712;2024-02-26T00:23:01;3.27;;;1.87;;
22924;SDS011;11628;51.072;3.712;2024-02-26T00:25:29;3.67;;;2.10;;
22924;SDS011;11628;51.072;3.712;2024-02-26T00:27:55;2.87;;;2.20;;
22924;SDS011;11628;51.072;3.712;2024-02-26T00:30:21;3.67;;;2.17;;
22924;SDS011;11628;51.072;3.712;2024-02-26T00:32:48;4.70;;;2.40;;
22924;SDS011;11628;51.072;3.712;2024-02-26T00:35:16;3.25;;;2.00;;
22924;SDS011;11628;51.072;3.712;2024-02-26T00:37:45;3.40;;;2.40;;
22924;SDS011;11628;51.072;3.712;2024-02-26T00:40:15;4.18;;;2.30;;
22924;SDS011;11628;51.072;3.712;2024-02-26T00:42:46;4.40;;;2.28;;
22924;SDS011;11628;51.072;3.712;2024-02-26T00:45:12;3.50;;;2.53;;
22924;SDS011;11628;51.072;3.712;2024-02-26T00:47:38;3.55;;;2.50;;
22924;SDS011;11628;51.072;3.712;2024-02-26T00:50:06;2.50;;;2.17;;
22924;SDS011;11628;51.072;3.712;2024-02-26T00:52:33;5.13;;;2.55;;
22924;SDS011;11628;51.072;3.712;2024-02-26T00:55:02;3.80;;;2.63;;
22924;SDS011;11628;51.072;3.712;2024-02-26T00:57:28;3.00;;;2.30;;
22924;SDS011;11628;51.072;3.712;2024-02-26T00:59:53;4.10;;;2.50;;
22924;SDS011;11628;51.072;3.712;2024-02-26T01:02:21;3.83;;;2.63;;
22924;SDS011;11628;51.072;3.712;2024-02-26T01:04:50;3.63;;;2.60;;
22924;SDS011;11628;51.072;3.712;2024-02-26T01:07:16;4.82;;;2.97;;
22924;SDS011;11628;51.072;3.712;2024-02-26T01:09:43;4.55;;;2.80;;
22924;SDS011;11628;51.072;3.712;2024-02-26T01:12:09;2.90;;;2.60;;
22924;SDS011;11628;51.072;3.712;2024-02-26T01:14:35;5.43;;;2.83;;
22924;SDS011;11628;51.072;3.712;2024-02-26T01:17:00;3.97;;;2.33;;
22924;SDS011;11628;51.072;3.712;2024-02-26T01:19:26;3.83;;;2.43;;
22924;SDS011;11628;51.072;3.712;2024-02-26T01:21:56;3.72;;;2.80;;
22924;SDS011;11628;51.072;3.712;2024-02-26T01:24:24;2.50;;;2.20;;
22924;SDS011;11628;51.072;3.712;2024-02-26T01:26:52;3.03;;;2.28;;
22924;SDS011;11628;51.072;3.712;2024-02-26T01:29:18;3.27;;;2.20;;
22924;SDS011;11628;51.072;3.712;2024-02-26T01:31:46;5.40;;;2.33;;
22924;SDS011;11628;51.072;3.712;2024-02-26T01:34:12;4.20;;;2.30;;
22924;SDS011;11628;51.072;3.712;2024-02-26T01:36:38;3.20;;;2.43;;
22924;SDS011;11628;51.072;3.712;2024-02-26T01:39:03;3.38;;;2.10;;
22924;SDS011;11628;51.072;3.712;2024-02-26T01:41:29;3.57;;;2.30;;
22924;SDS011;11628;51.072;3.712;2024-02-26T01:43:55;2.65;;;2.20;;
22924;SDS011;11628;51.072;3.712;2024-02-26T01:46:20;3.30;;;2.40;;
22924;SDS011;11628;51.072;3.712;2024-02-26T01:48:47;3.33;;;2.33;;
22924;SDS011;11628;51.072;3.712;2024-02-26T01:51:15;3.83;;;2.40;;
22924;SDS011;11628;51.072;3.712;2024-02-26T01:53:45;3.28;;;2.38;;
22924;SDS011;11628;51.072;3.712;2024-02-26T01:56:15;3.25;;;2.45;;
22924;SDS011;11628;51.072;3.712;2024-02-26T01:58:42;3.53;;;2.40;;
22924;SDS011;11628;51.072;3.712;2024-02-26T02:01:08;2.95;;;2.45;;
22924;SDS011;11628;51.072;3.712;2024-02-26T02:03:35;4.65;;;2.58;;
22924;SDS011;11628;51.072;3.712;2024-02-26T02:06:01;3.25;;;2.55;;
22924;SDS011;11628;51.072;3.712;2024-02-26T02:08:32;4.75;;;2.63;;
22924;SDS011;11628;51.072;3.712;2024-02-26T02:11:00;3.65;;;2.50;;
22924;SDS011;11628;51.072;3.712;2024-02-26T02:13:25;4.22;;;2.45;;
22924;SDS011;11628;51.072;3.712;2024-02-26T02:15:51;3.70;;;2.50;;
22924;SDS011;11628;51.072;3.712;2024-02-26T02:18:17;3.42;;;2.50;;
22924;SDS011;11628;51.072;3.712;2024-02-26T02:20:44;4.07;;;2.85;;
22924;SDS011;11628;51.072;3.712;2024-02-26T02:23:10;3.30;;;2.87;;
22924;SDS011;11628;51.072;3.712;2024-02-26T02:25:40;4.15;;;2.70;;
22924;SDS011;11628;51.072;3.712;2024-02-26T02:28:06;5.07;;;2.70;;
22924;SDS011;11628;51.072;3.712;2024-02-26T02:30:31;3.22;;;2.65;;
22924;SDS011;11628;51.072;3.712;2024-02-26T02:33:00;3.60;;;2.70;;
22924;SDS011;11628;51.072;3.712;2024-02-26T02:35:26;3.30;;;2.47;;
22924;SDS011;11628;51.072;3.712;2024-02-26T02:37:52;3.30;;;2.70;;
22924;SDS011;11628;51.072;3.712;2024-02-26T02:40:18;3.83;;;2.72;;
22924;SDS011;11628;51.072;3.712;2024-02-26T02:42:43;3.63;;;2.70;;
22924;SDS011;11628;51.072;3.712;2024-02-26T02:45:09;4.07;;;2.60;;
22924;SDS011;11628;51.072;3.712;2024-02-26T02:47:37;3.90;;;3.10;;
22924;SDS011;11628;51.072;3.712;2024-02-26T02:50:03;5.07;;;2.87;;
22924;SDS011;11628;51.072;3.712;2024-02-26T02:52:29;4.43;;;2.90;;
22924;SDS011;11628;51.072;3.712;2024-02-26T02:54:55;4.60;;;3.22;;
22924;SDS011;11628;51.072;3.712;2024-02-26T02:57:20;4.10;;;2.90;;
22924;SDS011;11628;51.072;3.712;2024-02-26T02:59:51;4.35;;;3.08;;
22924;SDS011;11628;51.072;3.712;2024-02-26T03:02:17;3.70;;;3.40;;
22924;SDS011;11628;51.072;3.712;2024-02-26T03:04:42;4.60;;;3.70;;
22924;SDS011;11628;51.072;3.712;2024-02-26T03:07:08;4.70;;;4.20;;
22924;SDS011;11628;51.072;3.712;2024-02-26T03:09:36;5.18;;;4.45;;
22924;SDS011;11628;51.072;3.712;2024-02-26T03:12:04;5.37;;;4.87;;
22924;SDS011;11628;51.072;3.712;2024-02-26T03:14:30;6.05;;;5.45;;
22924;SDS011;11628;51.072;3.712;2024-02-26T03:16:56;6.13;;;5.47;;
22924;SDS011;11628;51.072;3.712;2024-02-26T03:19:22;6.97;;;6.38;;
22924;SDS011;11628;51.072;3.712;2024-02-26T03:21:52;7.40;;;6.40;;
22924;SDS011;11628;51.072;3.712;2024-02-26T03:24:20;7.00;;;6.40;;
22924;SDS011;11628;51.072;3.712;2024-02-26T03:26:48;8.15;;;7.38;;
22924;SDS011;11628;51.072;3.712;2024-02-26T03:29:14;7.65;;;7.03;;
22924;SDS011;11628;51.072;3.712;2024-02-26T03:31:39;7.72;;;7.03;;
22924;SDS011;11628;51.072;3.712;2024-02-26T03:34:07;7.85;;;7.20;;
22924;SDS011;11628;51.072;3.712;2024-02-26T03:36:37;7.43;;;6.72;;
22924;SDS011;11628;51.072;3.712;2024-02-26T03:39:03;8.20;;;7.40;;
22924;SDS011;11628;51.072;3.712;2024-02-26T03:41:35;7.80;;;7.13;;
22924;SDS011;11628;51.072;3.712;2024-02-26T03:44:04;8.75;;;6.60;;
22924;SDS011;11628;51.072;3.712;2024-02-26T03:46:32;7.77;;;7.07;;
22924;SDS011;11628;51.072;3.712;2024-02-26T03:48:57;7.80;;;7.13;;
22924;SDS011;11628;51.072;3.712;2024-02-26T03:51:26;8.02;;;7.22;;
22924;SDS011;11628;51.072;3.712;2024-02-26T03:53:56;7.80;;;7.07;;
22924;SDS011;11628;51.072;3.712;2024-02-26T03:56:23;8.90;;;8.10;;
22924;SDS011;11628;51.072;3.712;2024-02-26T03:58:48;9.23;;;8.30;;
22924;SDS011;11628;51.072;3.712;2024-02-26T04:01:14;8.70;;;7.97;;
22924;SDS011;11628;51.072;3.712;2024-02-26T04:03:40;9.13;;;8.30;;
22924;SDS011;11628;51.072;3.712;2024-02-26T04:06:10;10.13;;;9.23;;
22924;SDS011;11628;51.072;3.712;2024-02-26T04:08:39;9.75;;;8.95;;
22924;SDS011;11628;51.072;3.712;2024-02-26T04:11:06;9.70;;;8.80;;
22924;SDS011;11628;51.072;3.712;2024-02-26T04:13:36;10.18;;;9.18;;
22924;SDS011;11628;51.072;3.712;2024-02-26T04:16:05;10.30;;;9.30;;
22924;SDS011;11628;51.072;3.712;2024-02-26T04:18:36;10.33;;;9.33;;
22924;SDS011;11628;51.072;3.712;2024-02-26T04:21:04;10.40;;;9.43;;
22924;SDS011;11628;51.072;3.712;2024-02-26T04:23:32;10.18;;;9.27;;
22924;SDS011;11628;51.072;3.712;2024-02-26T04:25:58;10.17;;;9.17;;
22924;SDS011;11628;51.072;3.712;2024-02-26T04:28:23;9.82;;;8.93;;
22924;SDS011;11628;51.072;3.712;2024-02-26T04:30:51;10.43;;;9.52;;
22924;SDS011;11628;51.072;3.712;2024-02-26T04:33:17;10.43;;;9.53;;
22924;SDS011;11628;51.072;3.712;2024-02-26T04:35:44;10.25;;;9.25;;
22924;SDS011;11628;51.072;3.712;2024-02-26T04:38:09;10.90;;;9.90;;
22924;SDS011;11628;51.072;3.712;2024-02-26T04:40:38;10.95;;;9.95;;
22924;SDS011;11628;51.072;3.712;2024-02-26T04:43:05;10.48;;;9.48;;
22924;SDS011;11628;51.072;3.712;2024-02-26T04:45:31;9.87;;;8.90;;
22924;SDS011;11628;51.072;3.712;2024-02-26T04:47:59;10.43;;;9.52;;
22924;SDS011;11628;51.072;3.712;2024-02-26T04:50:30;10.38;;;9.38;;
22924;SDS011;11628;51.072;3.712;2024-02-26T04:52:58;9.80;;;8.98;;
22924;SDS011;11628;51.072;3.712;2024-02-26T04:55:24;10.30;;;9.40;;
22924;SDS011;11628;51.072;3.712;2024-02-26T04:57:49;10.43;;;9.60;;
22924;SDS011;11628;51.072;3.712;2024-02-26T05:00:15;10.73;;;9.82;;
22924;SDS011;11628;51.072;3.712;2024-02-26T05:02:41;9.27;;;8.47;;
22924;SDS011;11628;51.072;3.712;2024-02-26T05:05:08;9.75;;;8.85;;
22924;SDS011;11628;51.072;3.712;2024-02-26T05:07:34;9.20;;;8.37;;
22924;SDS011;11628;51.072;3.712;2024-02-26T05:10:08;8.15;;;7.45;;
22924;SDS011;11628;51.072;3.712;2024-02-26T05:12:39;8.77;;;7.97;;
22924;SDS011;11628;51.072;3.712;2024-02-26T05:15:07;8.75;;;7.97;;
22924;SDS011;11628;51.072;3.712;2024-02-26T05:17:34;8.35;;;7.60;;
22924;SDS011;11628;51.072;3.712;2024-02-26T05:20:02;8.55;;;7.82;;
22924;SDS011;11628;51.072;3.712;2024-02-26T05:22:28;8.43;;;7.63;;
22924;SDS011;11628;51.072;3.712;2024-02-26T05:24:56;7.90;;;7.13;;
22924;SDS011;11628;51.072;3.712;2024-02-26T05:27:21;7.55;;;6.95;;
22924;SDS011;11628;51.072;3.712;2024-02-26T05:29:47;7.00;;;6.40;;
22924;SDS011;11628;51.072;3.712;2024-02-26T05:32:13;7.20;;;6.60;;
22924;SDS011;11628;51.072;3.712;2024-02-26T05:34:41;6.72;;;6.13;;
22924;SDS011;11628;51.072;3.712;2024-02-26T05:37:07;6.87;;;6.17;;
22924;SDS011;11628;51.072;3.712;2024-02-26T05:39:35;7.38;;;6.68;;
22924;SDS011;11628;51.072;3.712;2024-02-26T05:42:00;8.10;;;6.53;;
22924;SDS011;11628;51.072;3.712;2024-02-26T05:44:26;7.17;;;6.47;;
22924;SDS011;11628;51.072;3.712;2024-02-26T05:46:52;6.93;;;6.32;;
22924;SDS011;11628;51.072;3.712;2024-02-26T05:49:18;7.97;;;6.97;;
22924;SDS011;11628;51.072;3.712;2024-02-26T05:51:43;7.90;;;7.20;;
22924;SDS011;11628;51.072;3.712;2024-02-26T05:54:09;8.85;;;7.40;;
22924;SDS011;11628;51.072;3.712;2024-02-26T05:56:35;8.68;;;7.95;;
22924;SDS011;11628;51.072;3.712;2024-02-26T05:59:01;8.83;;;8.00;;
22924;SDS011;11628;51.072;3.712;2024-02-26T06:01:26;8.23;;;7.45;;
22924;SDS011;11628;51.072;3.712;2024-02-26T06:03:52;9.20;;;8.40;;
22924;SDS011;11628;51.072;3.712;2024-02-26T06:06:18;9.43;;;8.43;;
22924;SDS011;11628;51.072;3.712;2024-02-26T06:08:48;9.80;;;8.80;;
22924;SDS011;11628;51.072;3.712;2024-02-26T06:11:15;9.70;;;8.90;;
22924;SDS011;11628;51.072;3.712;2024-02-26T06:13:41;9.68;;;8.88;;
22924;SDS011;11628;51.072;3.712;2024-02-26T06:16:10;9.97;;;8.97;;
22924;SDS011;11628;51.072;3.712;2024-02-26T06:18:35;9.83;;;9.00;;
22924;SDS011;11628;51.072;3.712;2024-02-26T06:21:01;9.63;;;8.82;;
22924;SDS011;11628;51.072;3.712;2024-02-26T06:23:29;9.57;;;8.63;;
22924;SDS011;11628;51.072;3.712;2024-02-26T06:25:55;10.02;;;9.13;;
22924;SDS011;11628;51.072;3.712;2024-02-26T06:28:21;10.07;;;9.18;;
22924;SDS011;11628;51.072;3.712;2024-02-26T06:30:46;10.20;;;9.17;;
22924;SDS011;11628;51.072;3.712;2024-02-26T06:33:15;10.63;;;9.63;;
22924;SDS011;11628;51.072;3.712;2024-02-26T06:35:41;10.93;;;9.93;;
22924;SDS011;11628;51.072;3.712;2024-02-26T06:38:06;10.27;;;9.27;;
22924;SDS011;11628;51.072;3.712;2024-02-26T06:40:33;9.80;;;8.90;;
22924;SDS011;11628;51.072;3.712;2024-02-26T06:42:58;10.70;;;9.27;;
22924;SDS011;11628;51.072;3.712;2024-02-26T06:45:24;10.07;;;9.17;;
22924;SDS011;11628;51.072;3.712;2024-02-26T06:47:52;9.55;;;8.73;;
22924;SDS011;11628;51.072;3.712;2024-02-26T06:50:21;10.20;;;9.20;;
22924;SDS011;11628;51.072;3.712;2024-02-26T06:52:49;8.95;;;8.15;;
22924;SDS011;11628;51.072;3.712;2024-02-26T06:55:15;8.97;;;8.10;;
22924;SDS011;11628;51.072;3.712;2024-02-26T06:57:40;8.47;;;7.60;;
22924;SDS011;11628;51.072;3.712;2024-02-26T07:00:11;8.43;;;7.63;;
22924;SDS011;11628;51.072;3.712;2024-02-26T07:02:39;8.32;;;7.53;;
22924;SDS011;11628;51.072;3.712;2024-02-26T07:05:08;8.23;;;7.47;;
22924;SDS011;11628;51.072;3.712;2024-02-26T07:07:35;8.13;;;7.35;;
22924;SDS011;11628;51.072;3.712;2024-02-26T07:10:01;8.60;;;7.38;;
22924;SDS011;11628;51.072;3.712;2024-02-26T07:12:29;8.40;;;7.60;;
22924;SDS011;11628;51.072;3.712;2024-02-26T07:14:58;8.15;;;7.35;;
22924;SDS011;11628;51.072;3.712;2024-02-26T07:17:25;7.88;;;7.18;;
22924;SDS011;11628;51.072;3.712;2024-02-26T07:19:51;8.40;;;7.60;;
22924;SDS011;11628;51.072;3.712;2024-02-26T07:22:20;7.82;;;7.10;;
22924;SDS011;11628;51.072;3.712;2024-02-26T07:24:46;8.37;;;7.57;;
22924;SDS011;11628;51.072;3.712;2024-02-26T07:27:12;8.20;;;7.43;;
22924;SDS011;11628;51.072;3.712;2024-02-26T07:29:38;7.90;;;7.20;;
22924;SDS011;11628;51.072;3.712;2024-02-26T07:32:04;7.50;;;6.60;;
22924;SDS011;11628;51.072;3.712;2024-02-26T07:34:30;7.20;;;6.53;;
22924;SDS011;11628;51.072;3.712;2024-02-26T07:36:56;7.33;;;6.63;;
22924;SDS011;11628;51.072;3.712;2024-02-26T07:39:22;7.03;;;6.40;;
22924;SDS011;11628;51.072;3.712;2024-02-26T07:41:47;7.45;;;6.75;;
22924;SDS011;11628;51.072;3.712;2024-02-26T07:44:18;7.70;;;7.00;;
22924;SDS011;11628;51.072;3.712;2024-02-26T07:46:44;8.40;;;7.70;;
22924;SDS011;11628;51.072;3.712;2024-02-26T07:49:14;9.87;;;6.70;;
22924;SDS011;11628;51.072;3.712;2024-02-26T07:51:42;7.90;;;7.10;;
22924;SDS011;11628;51.072;3.712;2024-02-26T07:54:08;8.73;;;6.63;;
22924;SDS011;11628;51.072;3.712;2024-02-26T07:56:34;8.98;;;6.68;;
22924;SDS011;11628;51.072;3.712;2024-02-26T07:58:59;7.43;;;6.65;;
22924;SDS011;11628;51.072;3.712;2024-02-26T08:01:27;7.50;;;6.80;;
22924;SDS011;11628;51.072;3.712;2024-02-26T08:03:53;8.30;;;7.20;;
22924;SDS011;11628;51.072;3.712;2024-02-26T08:06:19;7.88;;;7.07;;
22924;SDS011;11628;51.072;3.712;2024-02-26T08:08:44;7.40;;;6.60;;
22924;SDS011;11628;51.072;3.712;2024-02-26T08:11:10;6.70;;;6.07;;
22924;SDS011;11628;51.072;3.712;2024-02-26T08:13:38;6.68;;;5.90;;
22924;SDS011;11628;51.072;3.712;2024-02-26T08:16:03;7.50;;;6.75;;
22924;SDS011;11628;51.072;3.712;2024-02-26T08:18:32;7.82;;;6.32;;
22924;SDS011;11628;51.072;3.712;2024-02-26T08:20:58;7.07;;;6.07;;
22924;SDS011;11628;51.072;3.712;2024-02-26T08:23:26;10.10;;;9.00;;
22924;SDS011;11628;51.072;3.712;2024-02-26T08:25:51;7.87;;;6.30;;
22924;SDS011;11628;51.072;3.712;2024-02-26T08:28:17;6.90;;;6.20;;
22924;SDS011;11628;51.072;3.712;2024-02-26T08:30:45;6.50;;;5.85;;
22924;SDS011;11628;51.072;3.712;2024-02-26T08:33:11;7.15;;;6.05;;
22924;SDS011;11628;51.072;3.712;2024-02-26T08:35:41;7.60;;;6.50;;
22924;SDS011;11628;51.072;3.712;2024-02-26T08:38:07;6.95;;;6.25;;
22924;SDS011;11628;51.072;3.712;2024-02-26T08:40:32;6.88;;;5.70;;
22924;SDS011;11628;51.072;3.712;2024-02-26T08:42:58;8.25;;;6.38;;
22924;SDS011;11628;51.072;3.712;2024-02-26T08:45:24;6.80;;;6.10;;
22924;SDS011;11628;51.072;3.712;2024-02-26T08:47:51;6.75;;;5.80;;
22924;SDS011;11628;51.072;3.712;2024-02-26T08:50:17;6.63;;;6.00;;
22924;SDS011;11628;51.072;3.712;2024-02-26T08:52:45;6.28;;;5.68;;
22924;SDS011;11628;51.072;3.712;2024-02-26T08:55:13;6.85;;;6.15;;
22924;SDS011;11628;51.072;3.712;2024-02-26T08:57:41;8.60;;;6.87;;
22924;SDS011;11628;51.072;3.712;2024-02-26T09:00:07;7.80;;;6.60;;
22924;SDS011;11628;51.072;3.712;2024-02-26T09:02:33;7.15;;;6.45;;
22924;SDS011;11628;51.072;3.712;2024-02-26T09:05:02;7.63;;;6.80;;
22924;SDS011;11628;51.072;3.712;2024-02-26T09:07:27;7.85;;;6.95;;
22924;SDS011;11628;51.072;3.712;2024-02-26T09:09:53;8.37;;;7.03;;
22924;SDS011;11628;51.072;3.712;2024-02-26T09:12:21;7.95;;;7.15;;
22924;SDS011;11628;51.072;3.712;2024-02-26T09:14:49;9.48;;;8.50;;
22924;SDS011;11628;51.072;3.712;2024-02-26T09:17:15;8.52;;;7.50;;
22924;SDS011;11628;51.072;3.712;2024-02-26T09:19:43;9.17;;;7.73;;
22924;SDS011;11628;51.072;3.712;2024-02-26T09:22:09;9.70;;;7.97;;
22924;SDS011;11628;51.072;3.712;2024-02-26T09:24:35;8.73;;;7.83;;
22924;SDS011;11628;51.072;3.712;2024-02-26T09:27:04;8.63;;;7.72;;
22924;SDS011;11628;51.072;3.712;2024-02-26T09:29:29;10.80;;;8.35;;
22924;SDS011;11628;51.072;3.712;2024-02-26T09:31:58;10.90;;;8.87;;
22924;SDS011;11628;51.072;3.712;2024-02-26T09:34:26;10.00;;;9.00;;
22924;SDS011;11628;51.072;3.712;2024-02-26T09:36:53;9.93;;;8.90;;
22924;SDS011;11628;51.072;3.712;2024-02-26T09:39:19;9.73;;;8.83;;
22924;SDS011;11628;51.072;3.712;2024-02-26T09:41:48;9.98;;;9.07;;
22924;SDS011;11628;51.072;3.712;2024-02-26T09:44:20;10.90;;;9.75;;
22924;SDS011;11628;51.072;3.712;2024-02-26T09:46:49;10.98;;;9.32;;
22924;SDS011;11628;51.072;3.712;2024-02-26T09:49:19;10.52;;;9.52;;
22924;SDS011;11628;51.072;3.712;2024-02-26T09:51:49;10.50;;;9.50;;
22924;SDS011;11628;51.072;3.712;2024-02-26T09:54:16;11.75;;;9.82;;
22924;SDS011;11628;51.072;3.712;2024-02-26T09:56:42;11.67;;;10.10;;
22924;SDS011;11628;51.072;3.712;2024-02-26T09:59:10;11.30;;;10.13;;
22924;SDS011;11628;51.072;3.712;2024-02-26T10:01:39;10.60;;;9.50;;
22924;SDS011;11628;51.072;3.712;2024-02-26T10:04:11;10.88;;;9.75;;
22924;SDS011;11628;51.072;3.712;2024-02-26T10:06:40;11.70;;;10.18;;
22924;SDS011;11628;51.072;3.712;2024-02-26T10:09:09;11.45;;;10.25;;
22924;SDS011;11628;51.072;3.712;2024-02-26T10:11:40;12.70;;;10.88;;
22924;SDS011;11628;51.072;3.712;2024-02-26T10:14:08;11.40;;;10.20;;
22924;SDS011;11628;51.072;3.712;2024-02-26T10:16:39;11.38;;;10.20;;
22924;SDS011;11628;51.072;3.712;2024-02-26T10:19:05;11.93;;;10.63;;
22924;SDS011;11628;51.072;3.712;2024-02-26T10:21:35;14.38;;;11.10;;
22924;SDS011;11628;51.072;3.712;2024-02-26T10:24:04;15.73;;;11.13;;
22924;SDS011;11628;51.072;3.712;2024-02-26T10:26:39;13.23;;;11.10;;
22924;SDS011;11628;51.072;3.712;2024-02-26T10:29:13;13.15;;;11.07;;
22924;SDS011;11628;51.072;3.712;2024-02-26T10:31:42;12.43;;;10.48;;
22924;SDS011;11628;51.072;3.712;2024-02-26T10:34:08;12.02;;;10.70;;
22924;SDS011;11628;51.072;3.712;2024-02-26T10:36:34;12.93;;;11.23;;
22924;SDS011;11628;51.072;3.712;2024-02-26T10:39:03;13.63;;;11.35;;
22924;SDS011;11628;51.072;3.712;2024-02-26T10:41:30;12.18;;;10.43;;
22924;SDS011;11628;51.072;3.712;2024-02-26T10:43:58;12.20;;;10.90;;
22924;SDS011;11628;51.072;3.712;2024-02-26T10:46:28;13.32;;;11.15;;
22924;SDS011;11628;51.072;3.712;2024-02-26T10:48:53;14.10;;;11.90;;
22924;SDS011;11628;51.072;3.712;2024-02-26T10:51:21;15.20;;;12.10;;
22924;SDS011;11628;51.072;3.712;2024-02-26T10:53:53;14.50;;;12.45;;
22924;SDS011;11628;51.072;3.712;2024-02-26T10:56:27;15.30;;;12.93;;
22924;SDS011;11628;51.072;3.712;2024-02-26T10:58:57;14.40;;;12.90;;
22924;SDS011;11628;51.072;3.712;2024-02-26T11:01:26;16.15;;;14.13;;
22924;SDS011;11628;51.072;3.712;2024-02-26T11:03:58;15.85;;;14.00;;
22924;SDS011;11628;51.072;3.712;2024-02-26T11:06:26;18.13;;;15.40;;
22924;SDS011;11628;51.072;3.712;2024-02-26T11:08:53;15.90;;;14.20;;
22924;SDS011;11628;51.072;3.712;2024-02-26T11:11:24;17.90;;;15.10;;
22924;SDS011;11628;51.072;3.712;2024-02-26T11:13:52;18.23;;;16.15;;
22924;SDS011;11628;51.072;3.712;2024-02-26T11:16:22;18.83;;;15.85;;
22924;SDS011;11628;51.072;3.712;2024-02-26T11:18:50;18.08;;;16.17;;
22924;SDS011;11628;51.072;3.712;2024-02-26T11:21:20;19.52;;;17.05;;
22924;SDS011;11628;51.072;3.712;2024-02-26T11:23:55;18.87;;;16.73;;
22924;SDS011;11628;51.072;3.712;2024-02-26T11:26:21;18.38;;;16.40;;
22924;SDS011;11628;51.072;3.712;2024-02-26T11:28:49;18.33;;;16.33;;
22924;SDS011;11628;51.072;3.712;2024-02-26T11:31:16;16.65;;;14.90;;
22924;SDS011;11628;51.072;3.712;2024-02-26T11:33:45;16.88;;;15.18;;
22924;SDS011;11628;51.072;3.712;2024-02-26T11:36:12;16.08;;;14.43;;
22924;SDS011;11628;51.072;3.712;2024-02-26T11:38:40;16.35;;;14.75;;
22924;SDS011;11628;51.072;3.712;2024-02-26T11:41:06;16.00;;;14.27;;
22924;SDS011;11628;51.072;3.712;2024-02-26T11:46:27;15.05;;;13.63;;
22924;SDS011;11628;51.072;3.712;2024-02-26T11:49:04;14.25;;;12.82;;
22924;SDS011;11628;51.072;3.712;2024-02-26T11:51:52;13.80;;;12.43;;
22924;SDS011;11628;51.072;3.712;2024-02-26T11:59:51;14.07;;;12.77;;
22924;SDS011;11628;51.072;3.712;2024-02-26T12:02:39;14.52;;;12.88;;
22924;SDS011;11628;51.072;3.712;2024-02-26T12:05:17;13.63;;;12.10;;
22924;SDS011;11628;51.072;3.712;2024-02-26T12:07:49;12.60;;;11.30;;
22924;SDS011;11628;51.072;3.712;2024-02-26T12:10:25;10.85;;;9.68;;
22924;SDS011;11628;51.072;3.712;2024-02-26T12:13:16;11.57;;;10.38;;
22924;SDS011;11628;51.072;3.712;2024-02-26T12:18:17;11.67;;;10.47;;
22924;SDS011;11628;51.072;3.712;2024-02-26T12:20:43;11.43;;;10.30;;
22924;SDS011;11628;51.072;3.712;2024-02-26T12:23:09;10.30;;;9.30;;
22924;SDS011;11628;51.072;3.712;2024-02-26T12:25:41;9.60;;;8.68;;
22924;SDS011;11628;51.072;3.712;2024-02-26T12:28:08;10.33;;;9.30;;
22924;SDS011;11628;51.072;3.712;2024-02-26T12:30:34;10.50;;;8.85;;
22924;SDS011;11628;51.072;3.712;2024-02-26T12:33:00;10.65;;;9.57;;
22924;SDS011;11628;51.072;3.712;2024-02-26T12:35:28;9.75;;;8.35;;
22924;SDS011;11628;51.072;3.712;2024-02-26T12:37:57;9.90;;;8.88;;
22924;SDS011;11628;51.072;3.712;2024-02-26T12:40:23;8.40;;;7.60;;
22924;SDS011;11628;51.072;3.712;2024-02-26T12:42:55;8.55;;;7.70;;
22924;SDS011;11628;51.072;3.712;2024-02-26T12:45:21;9.13;;;7.80;;
22924;SDS011;11628;51.072;3.712;2024-02-26T12:47:47;9.30;;;7.77;;
22924;SDS011;11628;51.072;3.712;2024-02-26T12:50:14;8.38;;;7.53;;
22924;SDS011;11628;51.072;3.712;2024-02-26T12:52:46;8.23;;;7.43;;
22924;SDS011;11628;51.072;3.712;2024-02-26T12:55:16;8.48;;;7.47;;
22924;SDS011;11628;51.072;3.712;2024-02-26T12:57:48;7.95;;;7.15;;
22924;SDS011;11628;51.072;3.712;2024-02-26T13:00:18;10.50;;;8.60;;
22924;SDS011;11628;51.072;3.712;2024-02-26T13:02:47;8.17;;;7.37;;
22924;SDS011;11628;51.072;3.712;2024-02-26T13:05:14;8.30;;;7.43;;
22924;SDS011;11628;51.072;3.712;2024-02-26T13:07:43;7.97;;;7.13;;
22924;SDS011;11628;51.072;3.712;2024-02-26T13:10:10;7.55;;;6.50;;
22924;SDS011;11628;51.072;3.712;2024-02-26T13:12:45;7.50;;;6.80;;
22924;SDS011;11628;51.072;3.712;2024-02-26T13:15:15;7.53;;;6.80;;
22924;SDS011;11628;51.072;3.712;2024-02-26T13:17:45;7.70;;;6.82;;
22924;SDS011;11628;51.072;3.712;2024-02-26T13:20:11;7.22;;;6.57;;
22924;SDS011;11628;51.072;3.712;2024-02-26T13:22:40;8.20;;;7.47;;
22924;SDS011;11628;51.072;3.712;2024-02-26T13:25:05;8.40;;;6.97;;
22924;SDS011;11628;51.072;3.712;2024-02-26T13:27:34;8.80;;;7.90;;
22924;SDS011;11628;51.072;3.712;2024-02-26T13:32:32;7.50;;;6.80;;
22924;SDS011;11628;51.072;3.712;2024-02-26T13:35:07;7.93;;;7.13;;
22924;SDS011;11628;51.072;3.712;2024-02-26T13:37:37;9.43;;;8.52;;
22924;SDS011;11628;51.072;3.712;2024-02-26T13:42:36;8.88;;;7.50;;
22924;SDS011;11628;51.072;3.712;2024-02-26T13:45:07;8.27;;;7.47;;
22924;SDS011;11628;51.072;3.712;2024-02-26T13:47:35;8.18;;;7.18;;
22924;SDS011;11628;51.072;3.712;2024-02-26T13:50:05;7.82;;;7.07;;
22924;SDS011;11628;51.072;3.712;2024-02-26T13:52:35;8.52;;;7.72;;
22924;SDS011;11628;51.072;3.712;2024-02-26T13:55:03;9.23;;;8.33;;
22924;SDS011;11628;51.072;3.712;2024-02-26T13:57:29;9.35;;;8.40;;
22924;SDS011;11628;51.072;3.712;2024-02-26T13:59:55;8.27;;;7.47;;
22924;SDS011;11628;51.072;3.712;2024-02-26T14:02:25;8.10;;;7.38;;
22924;SDS011;11628;51.072;3.712;2024-02-26T14:04:53;7.55;;;6.82;;
22924;SDS011;11628;51.072;3.712;2024-02-26T14:07:19;7.43;;;6.53;;
22924;SDS011;11628;51.072;3.712;2024-02-26T14:09:44;7.78;;;7.05;;
22924;SDS011;11628;51.072;3.712;2024-02-26T14:12:10;6.73;;;6.13;;
22924;SDS011;11628;51.072;3.712;2024-02-26T14:14:36;8.13;;;7.40;;
22924;SDS011;11628;51.072;3.712;2024-02-26T14:17:04;7.70;;;7.00;;
22924;SDS011;11628;51.072;3.712;2024-02-26T14:19:30;6.97;;;6.00;;
22924;SDS011;11628;51.072;3.712;2024-02-26T14:22:03;8.23;;;7.43;;
22924;SDS011;11628;51.072;3.712;2024-02-26T14:24:29;8.15;;;7.35;;
22924;SDS011;11628;51.072;3.712;2024-02-26T14:26:55;9.00;;;8.10;;
22924;SDS011;11628;51.072;3.712;2024-02-26T14:29:20;8.17;;;7.37;;
22924;SDS011;11628;51.072;3.712;2024-02-26T14:31:46;8.13;;;7.32;;
22924;SDS011;11628;51.072;3.712;2024-02-26T14:34:14;9.00;;;8.20;;
22924;SDS011;11628;51.072;3.712;2024-02-26T14:36:42;10.38;;;9.23;;
22924;SDS011;11628;51.072;3.712;2024-02-26T14:39:10;9.27;;;8.32;;
22924;SDS011;11628;51.072;3.712;2024-02-26T14:41:37;9.50;;;8.38;;
22924;SDS011;11628;51.072;3.712;2024-02-26T14:44:04;9.30;;;8.40;;
22924;SDS011;11628;51.072;3.712;2024-02-26T14:46:29;10.17;;;8.50;;
22924;SDS011;11628;51.072;3.712;2024-02-26T14:48:55;8.63;;;7.82;;
22924;SDS011;11628;51.072;3.712;2024-02-26T14:51:24;8.40;;;7.60;;
22924;SDS011;11628;51.072;3.712;2024-02-26T14:53:51;8.98;;;8.07;;
22924;SDS011;11628;51.072;3.712;2024-02-26T14:56:16;10.15;;;8.38;;
22924;SDS011;11628;51.072;3.712;2024-02-26T14:58:42;9.45;;;7.90;;
22924;SDS011;11628;51.072;3.712;2024-02-26T15:01:10;10.18;;;9.18;;